Time;durP1;ratioP1;P1;durP2;ratioP2;P2;SDS_P1;SDS_P2;PMS_P1;PMS_P2;Temp;Humidity;BMP_temperature;BMP_pressure;BME280_temperature;BME280_humidity;BME280_pressure;Samples;Min_cycle;Max_cycle;Signal;HPM_P1;HPM_P2
2022/01/25 00:09:10;;;;;;;47.33;30.13;;;1.30;99.90;;;;;;4936756;29;20051;-87
2022/01/25 00:27:43;;;;;;;52.00;32.42;;;1.30;99.90;;;;;;4918406;29;20404;-86
2022/01/25 00:30:42;;;;;;;51.47;32.60;;;1.30;99.90;;;;;;4936468;29;20016;-87
2022/01/25 00:33:09;;;;;;;55.55;33.50;;;1.30;99.90;;;;;;4934558;29;20040;-87
2022/01/25 00:35:39;;;;;;;49.53;32.58;;;1.30;99.90;;;;;;4935998;29;20039;-87
2022/01/25 00:38:06;;;;;;;49.17;32.30;;;1.50;99.90;;;;;;4935658;29;20461;-87
2022/01/25 00:40:32;;;;;;;54.63;33.55;;;1.50;99.90;;;;;;4935078;29;20227;-87
2022/01/25 00:42:57;;;;;;;49.80;31.88;;;1.50;99.90;;;;;;4935791;29;20071;-86
2022/01/25 00:45:27;;;;;;;54.17;32.47;;;1.60;99.90;;;;;;4935587;29;20476;-86
2022/01/25 00:47:53;;;;;;;50.65;32.35;;;1.50;99.90;;;;;;4935844;29;20095;-86
2022/01/25 00:50:19;;;;;;;52.53;32.75;;;1.40;99.90;;;;;;4935593;29;20035;-86
2022/01/25 00:55:12;;;;;;;46.63;31.10;;;1.40;99.90;;;;;;4935415;29;20505;-87
2022/01/25 00:57:38;;;;;;;45.45;29.85;;;1.40;99.90;;;;;;4935511;29;20118;-86
2022/01/25 01:00:07;;;;;;;50.63;32.25;;;1.40;99.90;;;;;;4935558;29;20028;-85
2022/01/25 01:02:33;;;;;;;46.28;30.55;;;1.40;99.90;;;;;;4935236;29;20523;-86
2022/01/25 01:04:58;;;;;;;47.80;31.35;;;1.30;99.90;;;;;;4934958;29;20032;-86
2022/01/25 01:07:25;;;;;;;46.72;30.08;;;1.60;99.90;;;;;;4935518;29;20020;-86
2022/01/25 01:09:52;;;;;;;46.28;30.30;;;1.10;99.90;;;;;;4935271;29;20516;-87
2022/01/25 01:29:11;;;;;;;52.47;31.98;;;1.40;99.90;;;;;;4932684;29;20118;-86
2022/01/25 01:42:19;;;;;;;49.60;32.67;;;1.40;99.90;;;;;;4932308;29;20048;-87
2022/01/25 01:45:10;;;;;;;47.72;30.90;;;1.40;99.90;;;;;;4930787;29;20032;-86
2022/01/25 01:47:49;;;;;;;49.50;30.08;;;1.30;99.90;;;;;;4931973;29;20051;-87
2022/01/25 01:50:31;;;;;;;48.00;31.35;;;1.40;99.90;;;;;;4932329;29;20213;-86
2022/01/25 01:53:02;;;;;;;49.45;30.65;;;1.40;99.90;;;;;;4933643;29;20079;-87
2022/01/25 01:55:28;;;;;;;50.08;31.75;;;1.50;99.90;;;;;;4933994;29;20051;-85
2022/01/25 01:57:58;;;;;;;51.15;31.58;;;1.40;99.90;;;;;;4925764;29;20038;-86
2022/01/25 02:00:38;;;;;;;48.38;30.65;;;1.50;99.90;;;;;;4949620;29;20030;-87
2022/01/25 02:03:05;;;;;;;47.72;29.85;;;1.40;99.90;;;;;;4949278;29;20050;-87
2022/01/25 02:05:34;;;;;;;45.17;29.52;;;1.40;99.90;;;;;;4934092;29;20083;-87
2022/01/25 02:08:00;;;;;;;48.45;30.65;;;1.20;99.90;;;;;;4933913;29;20042;-86
2022/01/25 02:10:27;;;;;;;49.90;30.70;;;1.10;99.90;;;;;;4933600;29;20028;-86
2022/01/25 02:12:53;;;;;;;51.88;32.58;;;1.20;99.90;;;;;;4933823;29;20095;-86
2022/01/25 02:15:20;;;;;;;53.15;31.45;;;1.30;99.90;;;;;;4934939;29;20381;-86
2022/01/25 02:23:21;;;;;;;47.05;30.38;;;1.30;99.90;;;;;;4934686;29;20038;-86
2022/01/25 02:25:53;;;;;;;49.53;30.05;;;1.10;99.90;;;;;;4933051;29;20480;-86
2022/01/25 02:28:20;;;;;;;47.25;30.33;;;1.20;99.90;;;;;;4937191;29;20035;-86
2022/01/25 02:30:46;;;;;;;47.67;29.85;;;1.10;99.90;;;;;;4938442;29;20032;-87
2022/01/25 02:33:11;;;;;;;48.15;29.75;;;1.20;99.90;;;;;;4937024;29;20413;-86
2022/01/25 02:35:37;;;;;;;44.70;29.30;;;1.10;99.90;;;;;;4942465;29;20046;-86
2022/01/25 02:38:04;;;;;;;46.15;29.10;;;1.10;99.90;;;;;;4937734;29;20042;-86
2022/01/25 02:40:29;;;;;;;49.00;30.98;;;1.30;99.90;;;;;;4936951;29;20028;-86
2022/01/25 02:42:56;;;;;;;48.40;29.88;;;1.00;99.90;;;;;;4937311;29;20058;-85
2022/01/25 02:45:22;;;;;;;49.50;31.17;;;0.80;99.90;;;;;;4934665;29;20692;-86
2022/01/25 02:50:32;;;;;;;49.72;31.42;;;1.00;99.90;;;;;;4938384;29;20090;-86
2022/01/25 02:52:58;;;;;;;48.35;31.05;;;0.90;99.90;;;;;;4937712;29;20043;-86
2022/01/25 02:55:24;;;;;;;47.85;30.50;;;0.80;99.90;;;;;;4937548;29;20028;-86
2022/01/25 02:57:49;;;;;;;51.65;29.70;;;0.80;99.90;;;;;;4937516;29;20059;-87
2022/01/25 03:00:17;;;;;;;49.75;30.00;;;0.70;99.90;;;;;;4938132;29;20082;-87
2022/01/25 03:02:42;;;;;;;51.28;30.77;;;0.80;99.90;;;;;;4937928;29;20115;-86
2022/01/25 03:05:09;;;;;;;49.22;30.42;;;0.40;99.90;;;;;;4937555;29;20123;-86
2022/01/25 03:07:37;;;;;;;48.60;30.58;;;0.60;99.90;;;;;;4936068;29;20020;-86
2022/01/25 03:10:05;;;;;;;51.53;31.17;;;0.70;99.90;;;;;;4938041;29;20054;-86
2022/01/25 03:12:54;;;;;;;48.80;31.48;;;0.60;99.90;;;;;;4938019;29;20416;-87
2022/01/25 03:17:55;;;;;;;48.60;30.95;;;0.70;99.90;;;;;;4937096;29;20519;-86
2022/01/25 03:20:34;;;;;;;52.83;31.02;;;0.80;99.90;;;;;;4937071;29;20551;-86
2022/01/25 03:23:05;;;;;;;51.45;32.47;;;0.80;99.90;;;;;;4937303;29;20560;-86
2022/01/25 03:25:31;;;;;;;50.63;31.45;;;0.90;99.90;;;;;;4936797;29;20020;-85
2022/01/25 03:27:57;;;;;;;53.55;31.20;;;0.90;99.90;;;;;;4937289;29;20039;-86
2022/01/25 03:30:25;;;;;;;49.65;31.27;;;0.90;99.90;;;;;;4937666;29;20035;-86
2022/01/25 03:32:50;;;;;;;51.55;31.25;;;0.90;99.90;;;;;;4951193;29;20044;-86
2022/01/25 03:35:16;;;;;;;56.15;33.38;;;1.00;99.90;;;;;;4937020;29;20099;-86
2022/01/25 03:37:42;;;;;;;52.17;31.30;;;1.00;99.90;;;;;;4935652;29;20074;-86
2022/01/25 03:40:08;;;;;;;51.85;32.40;;;1.20;99.90;;;;;;4936746;29;20456;-86
2022/01/25 03:42:37;;;;;;;48.60;29.95;;;1.10;99.90;;;;;;4936749;29;20047;-86
2022/01/25 03:45:07;;;;;;;47.03;30.52;;;1.00;99.90;;;;;;4937489;29;20038;-86
2022/01/25 03:47:56;;;;;;;47.17;29.65;;;1.00;99.90;;;;;;4937078;29;20079;-87
2022/01/25 03:50:22;;;;;;;48.08;30.40;;;1.00;99.90;;;;;;4936969;29;20054;-87
2022/01/25 03:52:47;;;;;;;52.90;31.85;;;0.90;99.90;;;;;;4937447;29;20555;-87
2022/01/25 03:55:13;;;;;;;50.55;30.90;;;1.00;99.90;;;;;;4935000;29;20027;-86
2022/01/25 03:57:39;;;;;;;52.13;31.67;;;1.00;99.90;;;;;;4935518;29;20305;-86
2022/01/25 04:00:07;;;;;;;49.30;30.85;;;0.90;99.90;;;;;;4936935;29;20028;-86
2022/01/25 04:02:34;;;;;;;52.10;31.83;;;1.00;99.90;;;;;;4935620;29;20034;-86
2022/01/25 04:05:01;;;;;;;51.17;32.47;;;1.10;99.90;;;;;;4935510;29;20038;-86
2022/01/25 04:07:43;;;;;;;50.05;31.90;;;0.90;99.90;;;;;;4936920;29;20024;-87
2022/01/25 04:10:09;;;;;;;54.15;32.85;;;1.20;99.90;;;;;;4936148;29;20460;-86
2022/01/25 04:12:35;;;;;;;53.65;31.55;;;0.80;99.90;;;;;;4936609;29;20032;-87
2022/01/25 04:15:02;;;;;;;50.67;32.53;;;0.50;99.90;;;;;;4935756;29;20035;-86
2022/01/25 04:17:28;;;;;;;56.58;33.15;;;0.60;99.90;;;;;;4934991;29;20055;-86
2022/01/25 04:20:12;;;;;;;50.20;32.20;;;0.40;99.90;;;;;;4936365;29;20172;-86
2022/01/25 04:25:22;;;;;;;52.13;32.10;;;0.60;99.90;;;;;;4936402;29;20066;-87
2022/01/25 04:27:48;;;;;;;53.00;30.75;;;0.70;99.90;;;;;;4936166;29;20052;-86
2022/01/25 04:30:14;;;;;;;53.13;32.60;;;0.70;99.90;;;;;;4935379;29;20036;-86
2022/01/25 04:32:54;;;;;;;50.88;32.88;;;0.60;99.90;;;;;;4935721;29;20043;-86
2022/01/25 04:49:12;;;;;;;51.70;31.38;;;0.50;99.90;;;;;;4936005;29;20570;-86
2022/01/25 04:54:34;;;;;;;51.10;29.75;;;0.30;99.90;;;;;;4936045;29;20488;-86
2022/01/25 05:05:00;;;;;;;50.92;29.70;;;0.20;99.90;;;;;;4935590;29;20122;-86
2022/01/25 05:07:50;;;;;;;48.78;30.88;;;0.20;99.90;;;;;;4934915;29;20122;-86
2022/01/25 05:10:16;;;;;;;50.22;30.48;;;0.30;99.90;;;;;;4923198;29;20031;-86
2022/01/25 05:12:46;;;;;;;51.80;31.13;;;0.10;99.90;;;;;;4934879;29;20042;-86
2022/01/25 05:17:47;;;;;;;51.22;30.75;;;0.10;99.90;;;;;;4934948;29;20027;-86
2022/01/25 05:22:57;;;;;;;52.60;30.80;;;0.10;99.90;;;;;;4934970;29;20476;-86
2022/01/25 05:25:22;;;;;;;53.65;32.08;;;0.10;99.90;;;;;;4935192;29;20027;-85
2022/01/25 05:27:48;;;;;;;56.25;32.42;;;0.10;99.90;;;;;;4934017;29;20027;-85
2022/01/25 05:30:14;;;;;;;52.25;31.80;;;0.10;99.90;;;;;;4935430;29;20082;-86
2022/01/25 05:32:40;;;;;;;56.00;33.22;;;0.20;99.90;;;;;;4934955;29;20047;-87
2022/01/25 05:35:05;;;;;;;51.83;32.00;;;0.60;99.90;;;;;;4935071;29;20028;-87
2022/01/25 05:37:35;;;;;;;51.72;31.27;;;0.20;99.90;;;;;;4934900;29;20377;-85
2022/01/25 05:40:01;;;;;;;53.67;32.78;;;0.20;99.90;;;;;;4935163;29;20032;-87
2022/01/25 05:47:28;;;;;;;55.15;32.20;;;0.20;99.90;;;;;;4934563;29;20039;-86
2022/01/25 05:49:55;;;;;;;52.15;31.92;;;0.30;99.90;;;;;;4934076;29;20511;-86
2022/01/25 05:52:21;;;;;;;51.38;32.25;;;0.20;99.90;;;;;;4934132;29;20091;-87
2022/01/25 05:54:46;;;;;;;57.63;34.72;;;0.20;99.90;;;;;;4933409;29;20452;-86
2022/01/25 05:57:12;;;;;;;59.42;34.67;;;0.10;99.90;;;;;;4934936;29;20027;-87
2022/01/25 05:59:38;;;;;;;54.67;34.80;;;0.20;99.90;;;;;;4934670;29;20032;-87
2022/01/25 06:02:05;;;;;;;57.72;32.58;;;0.20;99.90;;;;;;4933610;29;20082;-87
2022/01/25 06:04:30;;;;;;;51.97;31.67;;;0.20;99.90;;;;;;4933679;29;20091;-86
2022/01/25 06:06:56;;;;;;;55.05;32.25;;;0.20;99.90;;;;;;4934770;29;20036;-84
2022/01/25 06:09:24;;;;;;;56.38;32.75;;;0.10;99.90;;;;;;4935709;29;20456;-90
2022/01/25 06:11:54;;;;;;;52.13;31.48;;;0.10;99.90;;;;;;4935615;29;20040;-92
2022/01/25 06:14:20;;;;;;;52.72;31.00;;;0.40;99.90;;;;;;4934353;29;20039;-91
2022/01/25 06:16:46;;;;;;;57.10;31.92;;;0.00;99.90;;;;;;4933476;29;20042;-91
2022/01/25 06:19:12;;;;;;;56.05;32.25;;;0.10;99.90;;;;;;4935773;29;20024;-92
2022/01/25 06:21:37;;;;;;;53.90;32.22;;;0.10;99.90;;;;;;4935095;29;20216;-93
2022/01/25 06:24:03;;;;;;;52.88;30.60;;;0.00;99.90;;;;;;4934786;29;20055;-91
2022/01/25 06:26:29;;;;;;;52.22;31.00;;;0.00;99.90;;;;;;4933280;29;20520;-90
2022/01/25 06:28:55;;;;;;;48.22;29.13;;;0.10;99.90;;;;;;4934807;29;20064;-90
2022/01/25 06:31:21;;;;;;;59.03;33.72;;;0.10;99.90;;;;;;4935320;29;20024;-90
2022/01/25 06:33:47;;;;;;;55.72;31.67;;;0.10;99.90;;;;;;4932841;29;20507;-89
2022/01/25 06:36:13;;;;;;;63.15;36.65;;;0.10;99.90;;;;;;4935750;29;20019;-94
2022/01/25 06:38:38;;;;;;;55.38;32.35;;;0.10;99.90;;;;;;4935934;29;20404;-92
2022/01/25 06:41:04;;;;;;;57.28;34.00;;;0.20;99.90;;;;;;4935085;29;20052;-91
2022/01/25 06:43:31;;;;;;;50.42;30.25;;;0.10;99.90;;;;;;4934281;29;20082;-92
2022/01/25 06:46:01;;;;;;;48.72;30.40;;;0.20;99.90;;;;;;4933169;29;20031;-92
2022/01/25 06:48:27;;;;;;;49.95;30.33;;;0.70;99.90;;;;;;4934821;29;20042;-91
2022/01/25 06:50:53;;;;;;;48.75;29.73;;;0.20;99.90;;;;;;4934477;29;20035;-92
2022/01/25 06:53:19;;;;;;;51.05;31.77;;;0.20;99.90;;;;;;4933453;29;20046;-91
2022/01/25 06:55:44;;;;;;;50.00;29.55;;;0.00;99.90;;;;;;4934321;29;20114;-90
2022/01/25 06:58:10;;;;;;;52.90;31.52;;;0.00;99.90;;;;;;4933488;29;20127;-90
2022/01/25 07:00:36;;;;;;;52.60;31.77;;;0.20;99.90;;;;;;4934856;29;20028;-91
2022/01/25 07:03:01;;;;;;;58.33;33.38;;;0.10;99.90;;;;;;4934405;29;20468;-91
2022/01/25 07:05:27;;;;;;;59.35;34.70;;;0.00;99.90;;;;;;4933347;29;20047;-91
2022/01/25 07:07:53;;;;;;;56.53;33.25;;;0.70;99.90;;;;;;4933793;29;20519;-91
2022/01/25 07:10:19;;;;;;;58.90;33.20;;;0.10;99.90;;;;;;4933403;29;20027;-91
2022/01/25 07:12:46;;;;;;;53.97;31.23;;;0.00;99.90;;;;;;4934949;29;20058;-91
2022/01/25 07:15:13;;;;;;;52.10;31.15;;;0.00;99.90;;;;;;4937048;29;20031;-91
2022/01/25 07:17:39;;;;;;;50.75;30.80;;;0.10;99.90;;;;;;4933104;29;20035;-88
2022/01/25 07:20:06;;;;;;;52.00;31.58;;;0.10;99.90;;;;;;4935057;29;20044;-90
2022/01/25 07:22:33;;;;;;;60.90;34.33;;;0.20;99.90;;;;;;4935776;29;20030;-91
2022/01/25 07:24:59;;;;;;;48.25;30.58;;;0.50;99.90;;;;;;4936092;29;20028;-88
2022/01/25 07:27:24;;;;;;;51.88;30.92;;;0.40;99.90;;;;;;4937499;29;20477;-89
2022/01/25 07:29:50;;;;;;;55.08;31.25;;;0.60;99.90;;;;;;4937370;29;20362;-89
2022/01/25 07:32:16;;;;;;;53.53;31.25;;;0.50;99.90;;;;;;4935432;29;20103;-90
2022/01/25 07:34:41;;;;;;;52.05;31.50;;;0.50;99.90;;;;;;4935827;29;20031;-89
2022/01/25 07:37:07;;;;;;;54.72;31.83;;;0.60;99.90;;;;;;4935719;29;20035;-90
2022/01/25 07:39:33;;;;;;;49.90;29.70;;;0.60;99.90;;;;;;4937262;29;20392;-90
2022/01/25 07:41:59;;;;;;;52.58;30.45;;;1.10;99.90;;;;;;4936607;29;20502;-90
2022/01/25 07:44:30;;;;;;;51.95;30.85;;;0.90;99.90;;;;;;4937025;29;20122;-90
2022/01/25 07:47:00;;;;;;;51.15;31.95;;;0.90;99.90;;;;;;4935277;29;20379;-90
2022/01/25 07:49:27;;;;;;;51.50;31.52;;;1.70;99.90;;;;;;4936552;29;20567;-89
2022/01/25 07:51:53;;;;;;;56.67;30.73;;;1.70;99.90;;;;;;4937062;29;20052;-89
2022/01/25 07:54:19;;;;;;;50.97;30.83;;;2.20;99.90;;;;;;4937162;29;20034;-90
2022/01/25 07:56:44;;;;;;;48.00;29.30;;;4.40;99.90;;;;;;4935473;29;20477;-90
2022/01/25 07:59:10;;;;;;;48.78;29.27;;;5.00;99.90;;;;;;4935295;29;20062;-90
2022/01/25 08:01:36;;;;;;;44.50;28.88;;;5.10;99.90;;;;;;4936607;29;20032;-90
2022/01/25 08:04:02;;;;;;;47.90;30.35;;;5.70;99.90;;;;;;4936748;29;20036;-90
2022/01/25 08:06:27;;;;;;;44.15;28.45;;;5.50;99.90;;;;;;4936850;29;20035;-89
2022/01/25 08:08:53;;;;;;;44.70;27.38;;;6.80;99.90;;;;;;4935040;29;20046;-90
2022/01/25 08:11:19;;;;;;;46.10;28.48;;;7.00;99.90;;;;;;4935387;29;20040;-90
2022/01/25 08:13:49;;;;;;;40.05;27.13;;;7.70;99.90;;;;;;4936320;29;20086;-90
2022/01/25 08:16:15;;;;;;;43.25;28.63;;;8.70;99.90;;;;;;4936127;29;20039;-90
2022/01/25 08:18:42;;;;;;;44.28;28.58;;;9.30;99.90;;;;;;4936368;29;20103;-90
2022/01/25 08:21:07;;;;;;;42.17;26.63;;;10.10;99.90;;;;;;4935481;29;20393;-90
2022/01/25 08:23:33;;;;;;;40.95;26.95;;;10.90;99.90;;;;;;4936514;29;20040;-90
2022/01/25 08:25:59;;;;;;;40.08;26.77;;;10.70;99.90;;;;;;4933925;29;20511;-90
2022/01/25 08:28:24;;;;;;;45.88;28.55;;;12.60;99.90;;;;;;4935652;29;20432;-90
2022/01/25 08:30:50;;;;;;;42.20;26.50;;;13.90;99.90;;;;;;4934698;29;20059;-90
2022/01/25 08:33:16;;;;;;;39.90;26.63;;;14.50;99.90;;;;;;4935045;29;20052;-90
2022/01/25 08:35:42;;;;;;;39.67;27.52;;;16.50;99.90;;;;;;4935458;29;20404;-90
2022/01/25 08:38:07;;;;;;;39.83;27.10;;;14.90;99.90;;;;;;4935749;29;20043;-90
2022/01/25 08:40:34;;;;;;;37.72;27.00;;;16.90;99.90;;;;;;4934162;29;20434;-90
2022/01/25 08:43:01;;;;;;;40.42;27.60;;;18.10;99.90;;;;;;4934162;29;20102;-89
2022/01/25 08:45:27;;;;;;;39.13;27.42;;;18.30;99.90;;;;;;4935222;29;20023;-90
2022/01/25 08:47:53;;;;;;;39.78;27.67;;;18.90;99.90;;;;;;4936306;29;20024;-89
2022/01/25 08:50:18;;;;;;;37.42;27.10;;;19.00;99.90;;;;;;4935178;29;20724;-91
2022/01/25 08:52:44;;;;;;;40.20;26.77;;;18.00;99.90;;;;;;4934046;29;20067;-90
2022/01/25 08:55:10;;;;;;;35.42;27.48;;;19.60;99.90;;;;;;4935203;29;20023;-90
2022/01/25 08:57:35;;;;;;;38.65;27.30;;;18.60;99.90;;;;;;4935055;29;20071;-90
2022/01/25 09:00:04;;;;;;;36.90;27.48;;;18.90;99.90;;;;;;4935202;29;20032;-90
2022/01/25 09:02:30;;;;;;;36.78;27.05;;;19.40;99.90;;;;;;4934805;29;20094;-90
2022/01/25 09:04:56;;;;;;;37.03;26.85;;;19.90;99.90;;;;;;4933614;29;20028;-90
2022/01/25 09:07:21;;;;;;;36.83;26.80;;;18.60;99.90;;;;;;4934075;29;20032;-87
2022/01/25 09:09:47;;;;;;;34.92;27.02;;;20.80;99.90;;;;;;4935231;29;20031;-87
2022/01/25 09:12:13;;;;;;;40.45;27.08;;;21.10;99.90;;;;;;4933916;29;20127;-87
2022/01/25 09:14:38;;;;;;;40.10;27.77;;;20.30;99.90;;;;;;4934352;29;20031;-87
2022/01/25 09:17:07;;;;;;;37.60;27.23;;;21.20;99.90;;;;;;4934160;29;20062;-87
2022/01/25 09:19:34;;;;;;;39.70;27.52;;;20.80;99.90;;;;;;4934639;29;20055;-87
2022/01/25 09:22:00;;;;;;;41.20;28.73;;;20.10;99.90;;;;;;4933421;29;20040;-88
2022/01/25 09:24:27;;;;;;;40.70;29.23;;;21.50;99.90;;;;;;4935500;29;20027;-87
2022/01/25 09:26:52;;;;;;;41.95;29.02;;;19.90;99.90;;;;;;4935142;29;20024;-87
2022/01/25 09:29:18;;;;;;;42.55;28.67;;;20.10;99.90;;;;;;4934231;29;20058;-87
2022/01/25 09:31:43;;;;;;;40.08;29.17;;;21.60;99.90;;;;;;4934620;29;20044;-88
2022/01/25 09:34:09;;;;;;;40.67;29.77;;;22.20;99.90;;;;;;4934986;29;20042;-87
2022/01/25 09:36:35;;;;;;;46.30;32.22;;;22.60;99.90;;;;;;4932882;29;20034;-88
2022/01/25 09:39:00;;;;;;;47.17;36.20;;;23.90;99.90;;;;;;4935287;29;20167;-88
2022/01/25 09:41:28;;;;;;;53.40;37.83;;;23.80;99.90;;;;;;4934436;29;20067;-88
2022/01/25 09:43:54;;;;;;;50.28;33.85;;;24.00;99.90;;;;;;4934173;29;20053;-87
2022/01/25 09:46:19;;;;;;;41.15;32.55;;;23.90;99.90;;;;;;4934380;29;20034;-87
2022/01/25 09:48:45;;;;;;;44.47;33.22;;;25.00;99.90;;;;;;4934387;29;20110;-88
2022/01/25 09:51:11;;;;;;;48.72;34.42;;;25.50;99.90;;;;;;4934693;29;20031;-87
2022/01/25 09:53:39;;;;;;;48.05;36.05;;;25.50;99.90;;;;;;4932993;29;20054;-87
2022/01/25 09:56:05;;;;;;;44.95;34.40;;;25.70;99.90;;;;;;4934352;29;20038;-86
2022/01/25 09:58:31;;;;;;;42.45;33.85;;;26.20;99.90;;;;;;4933674;29;20110;-87
2022/01/25 10:01:00;;;;;;;45.75;35.55;;;26.30;99.90;;;;;;4932665;29;20127;-87
2022/01/25 10:03:33;;;;;;;43.17;33.28;;;26.50;99.90;;;;;;4933721;29;20023;-87
2022/01/25 10:06:02;;;;;;;44.28;33.22;;;26.70;99.90;;;;;;4931103;29;20042;-84
2022/01/25 10:08:38;;;;;;;46.38;33.95;;;26.90;99.90;;;;;;4933484;29;20023;-88
2022/01/25 10:11:10;;;;;;;48.83;35.05;;;27.20;99.90;;;;;;4933688;29;20481;-87
2022/01/25 10:13:39;;;;;;;45.85;35.83;;;26.80;99.90;;;;;;4933669;29;20032;-87
2022/01/25 10:16:09;;;;;;;47.40;36.03;;;26.70;99.90;;;;;;4934115;29;20027;-87
2022/01/25 10:18:40;;;;;;;50.53;39.03;;;27.00;99.90;;;;;;4934597;29;20042;-88
2022/01/25 10:21:27;;;;;;;45.88;35.30;;;26.90;99.90;;;;;;4931174;29;20027;-87
2022/01/25 10:24:01;;;;;;;52.22;37.22;;;27.00;99.90;;;;;;4934136;29;20059;-86
2022/01/25 10:26:30;;;;;;;44.42;36.95;;;27.10;99.90;;;;;;4933325;29;20028;-87
2022/01/25 10:28:55;;;;;;;41.42;35.70;;;26.60;99.90;;;;;;4934577;29;20032;-88
2022/01/25 10:31:35;;;;;;;45.25;36.60;;;26.70;99.90;;;;;;4933404;29;20039;-89
2022/01/25 10:34:01;;;;;;;43.08;36.83;;;27.20;99.90;;;;;;4919647;29;20583;-86
2022/01/25 10:36:27;;;;;;;39.92;35.58;;;27.80;99.90;;;;;;4934641;29;20032;-86
2022/01/25 10:38:54;;;;;;;48.42;36.65;;;28.70;99.90;;;;;;4934215;29;20031;-87
2022/01/25 10:41:24;;;;;;;42.70;35.80;;;28.50;99.90;;;;;;4933001;29;20071;-85
2022/01/25 10:43:52;;;;;;;46.22;36.10;;;28.50;99.90;;;;;;4933807;29;20108;-87
2022/01/25 10:46:25;;;;;;;40.38;35.78;;;28.50;99.90;;;;;;4933972;29;20529;-87
2022/01/25 10:48:59;;;;;;;39.10;34.67;;;28.60;99.90;;;;;;4937028;29;20035;-88
2022/01/25 10:51:34;;;;;;;40.50;35.90;;;28.80;99.90;;;;;;4939307;29;20027;-90
2022/01/25 10:54:24;;;;;;;39.92;35.65;;;29.20;99.90;;;;;;4957565;29;20039;-91
2022/01/25 10:56:56;;;;;;;44.22;36.83;;;28.60;99.90;;;;;;4942518;29;20035;-92
2022/01/25 10:59:29;;;;;;;43.15;36.97;;;28.90;99.90;;;;;;4940142;29;20507;-91
2022/01/25 11:01:58;;;;;;;40.05;35.92;;;29.10;99.90;;;;;;4938757;29;20020;-94
2022/01/25 11:04:28;;;;;;;41.30;36.85;;;29.00;99.90;;;;;;4941496;29;20111;-91
2022/01/25 11:07:11;;;;;;;37.50;33.30;;;28.90;99.90;;;;;;4939992;29;20424;-91
2022/01/25 11:09:43;;;;;;;40.88;35.17;;;28.60;99.90;;;;;;4935807;29;20028;-91
2022/01/25 11:12:14;;;;;;;39.72;35.53;;;29.10;99.90;;;;;;4947407;29;20035;-90
2022/01/25 11:14:50;;;;;;;40.25;35.95;;;29.80;99.90;;;;;;4938396;29;20035;-92
2022/01/25 11:17:16;;;;;;;40.83;35.70;;;29.00;99.90;;;;;;4938002;29;20067;-91
2022/01/25 11:19:42;;;;;;;39.88;35.70;;;29.10;99.90;;;;;;4936194;29;20388;-90
2022/01/25 11:22:17;;;;;;;42.90;37.22;;;28.90;99.90;;;;;;4935914;29;20032;-90
2022/01/25 11:24:43;;;;;;;42.60;36.42;;;29.50;99.90;;;;;;4937024;29;20144;-90
2022/01/25 11:27:10;;;;;;;39.08;34.75;;;30.00;99.90;;;;;;4938147;29;20027;-93
2022/01/25 11:29:39;;;;;;;39.90;34.45;;;30.20;99.90;;;;;;4939447;29;20039;-86
2022/01/25 11:32:11;;;;;;;39.17;34.97;;;30.30;99.90;;;;;;4936018;29;20526;-86
2022/01/25 11:34:38;;;;;;;38.88;34.78;;;29.80;99.90;;;;;;4936819;29;20078;-89
2022/01/25 11:37:07;;;;;;;39.75;35.03;;;29.30;99.90;;;;;;4936127;29;20043;-89
2022/01/25 11:39:35;;;;;;;39.00;34.40;;;29.60;99.90;;;;;;4937013;29;20035;-87
2022/01/25 11:42:02;;;;;;;39.40;34.50;;;29.10;99.90;;;;;;4936273;29;20093;-87
2022/01/25 11:44:29;;;;;;;38.92;34.10;;;29.50;99.90;;;;;;4936974;29;20453;-89
2022/01/25 11:47:09;;;;;;;40.00;34.90;;;29.10;99.90;;;;;;4936463;29;20083;-88
2022/01/25 11:49:48;;;;;;;39.30;35.10;;;29.50;99.90;;;;;;4936404;29;20035;-88
2022/01/25 11:52:15;;;;;;;40.25;36.03;;;29.10;99.90;;;;;;4936161;29;20035;-86
2022/01/25 11:54:42;;;;;;;39.80;35.60;;;29.80;99.90;;;;;;4936724;29;20380;-86
2022/01/25 11:57:11;;;;;;;39.15;34.90;;;29.50;99.90;;;;;;4935365;29;20423;-85
2022/01/25 11:59:38;;;;;;;40.45;36.10;;;28.90;99.90;;;;;;4935459;29;20115;-86
2022/01/25 12:02:04;;;;;;;40.88;36.30;;;29.30;99.90;;;;;;4936234;29;20032;-86
2022/01/25 12:04:30;;;;;;;40.88;35.20;;;29.00;99.90;;;;;;4935729;29;20492;-87
2022/01/25 12:07:01;;;;;;;39.80;35.63;;;29.10;99.90;;;;;;4936451;29;20591;-86
2022/01/25 12:09:45;;;;;;;41.03;36.58;;;28.30;99.90;;;;;;4933828;29;20055;-92
2022/01/25 12:12:15;;;;;;;39.40;35.20;;;27.20;99.90;;;;;;4935974;29;20107;-94
2022/01/25 12:14:49;;;;;;;38.50;34.47;;;28.20;99.90;;;;;;4936905;29;20079;-94
2022/01/25 12:17:25;;;;;;;39.05;34.90;;;27.80;99.90;;;;;;4935022;29;20042;-94
2022/01/25 12:19:58;;;;;;;39.22;34.92;;;28.30;99.90;;;;;;4936699;29;20115;-93
2022/01/25 12:25:11;;;;;;;36.60;32.88;;;29.00;99.90;;;;;;4920977;29;20035;-93
2022/01/25 12:27:54;;;;;;;38.50;34.42;;;27.90;99.90;;;;;;4934838;29;20027;-91
2022/01/25 12:30:26;;;;;;;37.58;33.60;;;27.70;99.90;;;;;;4935207;29;20374;-92
2022/01/25 12:33:03;;;;;;;38.25;34.15;;;28.00;99.90;;;;;;4937716;29;20043;-89
2022/01/25 12:35:44;;;;;;;41.60;35.08;;;28.50;99.90;;;;;;4937558;29;20027;-88
2022/01/25 12:38:15;;;;;;;38.70;33.63;;;28.40;99.90;;;;;;4936279;29;20483;-88
2022/01/25 12:40:51;;;;;;;39.80;35.47;;;28.70;99.90;;;;;;4936712;29;20032;-92
2022/01/25 12:43:26;;;;;;;38.30;34.28;;;28.20;99.90;;;;;;4936467;29;20517;-93
2022/01/25 12:45:57;;;;;;;39.25;35.05;;;27.80;99.90;;;;;;4940859;29;20028;-95
2022/01/25 12:48:27;;;;;;;40.60;36.28;;;27.70;99.90;;;;;;4939865;29;20038;-96
2022/01/25 12:50:56;;;;;;;37.53;33.47;;;27.20;99.90;;;;;;4936839;29;20036;-92
2022/01/25 12:53:24;;;;;;;38.17;34.20;;;27.90;99.90;;;;;;4935025;29;20047;-94
2022/01/25 12:55:55;;;;;;;37.78;33.65;;;27.30;99.90;;;;;;4937084;29;20463;-92
2022/01/25 12:58:24;;;;;;;37.30;33.45;;;26.80;99.90;;;;;;4935583;29;20027;-93
2022/01/25 13:00:52;;;;;;;39.17;34.63;;;27.60;99.90;;;;;;4935611;29;20108;-87
2022/01/25 13:03:22;;;;;;;39.22;35.17;;;27.10;99.90;;;;;;4935558;29;20028;-89
2022/01/25 13:05:53;;;;;;;38.30;34.47;;;26.70;99.90;;;;;;4934877;29;20039;-92
2022/01/25 13:08:21;;;;;;;39.55;35.25;;;26.70;99.90;;;;;;4935569;29;20455;-91
2022/01/25 13:10:49;;;;;;;41.35;36.95;;;26.90;99.90;;;;;;4935058;29;20118;-92
2022/01/25 13:13:30;;;;;;;39.40;35.30;;;26.90;99.90;;;;;;4933877;29;20039;-93
2022/01/25 13:15:57;;;;;;;39.20;35.10;;;26.70;99.90;;;;;;4920300;29;20103;-91
2022/01/25 13:18:29;;;;;;;39.20;35.10;;;26.80;99.90;;;;;;4936311;29;20114;-92
2022/01/25 13:21:05;;;;;;;38.22;34.30;;;26.10;99.90;;;;;;4937043;29;20103;-96
2022/01/25 13:23:32;;;;;;;39.08;34.88;;;26.10;99.90;;;;;;4935538;29;20035;-93
2022/01/25 13:26:10;;;;;;;38.10;34.03;;;25.60;99.90;;;;;;4934618;29;20067;-91
2022/01/25 13:31:08;;;;;;;38.25;34.25;;;26.00;99.90;;;;;;4935350;29;20042;-91
2022/01/25 13:33:35;;;;;;;37.35;33.45;;;25.70;99.90;;;;;;4935210;29;20082;-92
2022/01/25 13:36:01;;;;;;;35.85;32.05;;;24.10;99.90;;;;;;4937161;29;20511;-88
2022/01/25 13:46:07;;;;;;;38.53;34.30;;;25.30;99.90;;;;;;4930363;29;20036;-91
2022/01/25 13:48:34;;;;;;;44.97;36.72;;;25.00;99.90;;;;;;4937100;29;20035;-92
2022/01/25 13:51:06;;;;;;;42.40;37.03;;;25.20;99.90;;;;;;4938902;29;20096;-92
2022/01/25 13:53:33;;;;;;;39.78;35.05;;;25.10;99.90;;;;;;4938176;29;20040;-92
2022/01/25 13:56:01;;;;;;;36.90;33.00;;;25.30;99.90;;;;;;4939013;29;20039;-92
2022/01/25 13:58:35;;;;;;;40.55;36.15;;;24.40;99.90;;;;;;4936712;29;20517;-93
2022/01/25 14:01:05;;;;;;;39.30;33.88;;;24.60;99.90;;;;;;4934882;29;20028;-92
2022/01/25 14:03:32;;;;;;;43.55;35.78;;;24.70;99.90;;;;;;4939330;29;20028;-92
2022/01/25 14:05:58;;;;;;;39.45;35.35;;;24.70;99.90;;;;;;4938327;29;20038;-92
2022/01/25 14:08:43;;;;;;;41.22;36.92;;;23.80;99.90;;;;;;4938800;29;20396;-92
2022/01/25 14:11:34;;;;;;;39.20;35.10;;;23.30;99.90;;;;;;4939250;29;20515;-91
2022/01/25 14:24:53;;;;;;;40.22;35.67;;;22.70;99.90;;;;;;4940534;29;20067;-92
2022/01/25 14:27:31;;;;;;;43.72;36.35;;;22.60;99.90;;;;;;4941078;29;20389;-92
2022/01/25 14:29:57;;;;;;;42.92;36.55;;;22.50;99.90;;;;;;4942152;29;20030;-92
2022/01/25 14:32:34;;;;;;;40.05;35.13;;;22.60;99.90;;;;;;4942695;29;20556;-91
2022/01/25 14:35:05;;;;;;;40.25;35.75;;;22.40;99.90;;;;;;4941878;29;20037;-92
2022/01/25 14:37:31;;;;;;;38.05;33.92;;;22.20;99.90;;;;;;4941252;29;20094;-91
2022/01/25 14:40:09;;;;;;;42.13;37.15;;;22.10;99.90;;;;;;4939138;29;20504;-91
2022/01/25 14:42:37;;;;;;;40.38;35.70;;;22.00;99.90;;;;;;4949539;29;20067;-90
2022/01/25 14:45:06;;;;;;;41.50;36.55;;;22.00;99.90;;;;;;4942014;29;20462;-92
2022/01/25 14:47:39;;;;;;;45.05;35.13;;;22.00;99.90;;;;;;4926240;29;20062;-91